sensor_id;sensor_type;location;lat;lon;timestamp;pressure;altitude;pressure_sealevel;temperature;humidity
77867;BME280;67271;59.120;37.970;2023-12-20T00:05:21;97443.09;;;-0.20;84.65
77867;BME280;67271;59.120;37.970;2023-12-20T00:07:46;97448.75;;;-0.02;84.54
77867;BME280;67271;59.120;37.970;2023-12-20T00:10:12;97450.03;;;0.15;84.32
77867;BME280;67271;59.120;37.970;2023-12-20T00:12:38;97459.13;;;0.27;83.61
77867;BME280;67271;59.120;37.970;2023-12-20T00:15:04;97459.97;;;0.34;83.75
77867;BME280;67271;59.120;37.970;2023-12-20T00:17:30;97439.91;;;0.38;83.25
77867;BME280;67271;59.120;37.970;2023-12-20T00:19:56;97450.34;;;0.40;83.72
77867;BME280;67271;59.120;37.970;2023-12-20T00:22:22;97445.22;;;0.38;83.53
77867;BME280;67271;59.120;37.970;2023-12-20T00:24:48;97445.41;;;0.30;83.62
77867;BME280;67271;59.120;37.970;2023-12-20T00:27:14;97447.19;;;0.17;83.68
77867;BME280;67271;59.120;37.970;2023-12-20T00:29:39;97436.94;;;0.07;84.17
77867;BME280;67271;59.120;37.970;2023-12-20T00:32:05;97438.53;;;0.08;84.53
77867;BME280;67271;59.120;37.970;2023-12-20T00:34:31;97438.28;;;-0.04;84.47
77867;BME280;67271;59.120;37.970;2023-12-20T00:36:57;97427.00;;;-0.12;84.34
77867;BME280;67271;59.120;37.970;2023-12-20T00:39:23;97428.94;;;-0.27;84.75
77867;BME280;67271;59.120;37.970;2023-12-20T00:41:49;97429.72;;;-0.33;85.17
77867;BME280;67271;59.120;37.970;2023-12-20T00:44:15;97424.78;;;-0.36;85.17
77867;BME280;67271;59.120;37.970;2023-12-20T00:46:41;97421.22;;;-0.50;85.36
77867;BME280;67271;59.120;37.970;2023-12-20T00:49:07;97417.72;;;-0.57;85.06
77867;BME280;67271;59.120;37.970;2023-12-20T00:51:32;97416.44;;;-0.68;85.12
77867;BME280;67271;59.120;37.970;2023-12-20T00:53:58;97416.97;;;-0.72;85.32
77867;BME280;67271;59.120;37.970;2023-12-20T00:56:24;97420.84;;;-0.75;85.52
77867;BME280;67271;59.120;37.970;2023-12-20T00:58:50;97414.22;;;-0.86;85.88
77867;BME280;67271;59.120;37.970;2023-12-20T01:01:16;97417.06;;;-0.87;86.08
77867;BME280;67271;59.120;37.970;2023-12-20T01:03:42;97413.81;;;-0.83;85.67
77867;BME280;67271;59.120;37.970;2023-12-20T01:06:08;97404.44;;;-0.85;85.47
77867;BME280;67271;59.120;37.970;2023-12-20T01:08:34;97405.44;;;-0.86;85.98
77867;BME280;67271;59.120;37.970;2023-12-20T01:11:00;97402.56;;;-0.91;85.51
77867;BME280;67271;59.120;37.970;2023-12-20T01:13:26;97403.94;;;-0.95;85.63
77867;BME280;67271;59.120;37.970;2023-12-20T01:15:52;97404.56;;;-0.93;85.79
77867;BME280;67271;59.120;37.970;2023-12-20T01:18:18;97405.53;;;-1.01;85.82
77867;BME280;67271;59.120;37.970;2023-12-20T01:20:43;97402.06;;;-1.01;85.77
77867;BME280;67271;59.120;37.970;2023-12-20T01:23:09;97398.16;;;-1.05;85.95
77867;BME280;67271;59.120;37.970;2023-12-20T01:25:35;97399.75;;;-1.04;86.00
77867;BME280;67271;59.120;37.970;2023-12-20T01:28:01;97387.97;;;-1.02;86.20
77867;BME280;67271;59.120;37.970;2023-12-20T01:30:28;97396.88;;;-1.09;86.06
77867;BME280;67271;59.120;37.970;2023-12-20T01:32:54;97395.41;;;-1.12;86.04
77867;BME280;67271;59.120;37.970;2023-12-20T01:35:20;97392.34;;;-1.15;86.43
77867;BME280;67271;59.120;37.970;2023-12-20T01:37:45;97386.38;;;-1.18;86.05
77867;BME280;67271;59.120;37.970;2023-12-20T01:40:12;97385.16;;;-1.22;86.37
77867;BME280;67271;59.120;37.970;2023-12-20T01:42:37;97395.16;;;-1.17;86.03
77867;BME280;67271;59.120;37.970;2023-12-20T01:45:04;97391.81;;;-1.26;86.23
77867;BME280;67271;59.120;37.970;2023-12-20T01:47:30;97386.50;;;-1.26;86.37
77867;BME280;67271;59.120;37.970;2023-12-20T01:49:56;97386.91;;;-1.29;85.98
77867;BME280;67271;59.120;37.970;2023-12-20T01:52:22;97382.63;;;-1.30;86.13
77867;BME280;67271;59.120;37.970;2023-12-20T01:54:48;97384.81;;;-1.33;86.44
77867;BME280;67271;59.120;37.970;2023-12-20T01:57:15;97380.31;;;-1.33;86.56
77867;BME280;67271;59.120;37.970;2023-12-20T01:59:41;97371.59;;;-1.27;86.72
77867;BME280;67271;59.120;37.970;2023-12-20T02:02:07;97373.59;;;-1.14;86.19
77867;BME280;67271;59.120;37.970;2023-12-20T02:04:33;97374.31;;;-1.20;86.04
77867;BME280;67271;59.120;37.970;2023-12-20T02:06:59;97369.09;;;-1.13;86.03
77867;BME280;67271;59.120;37.970;2023-12-20T02:09:26;97370.56;;;-1.04;86.02
77867;BME280;67271;59.120;37.970;2023-12-20T02:11:54;97369.06;;;-0.92;86.00
77867;BME280;67271;59.120;37.970;2023-12-20T02:14:19;97361.53;;;-0.89;85.83
77867;BME280;67271;59.120;37.970;2023-12-20T02:16:45;97365.03;;;-0.82;85.54
77867;BME280;67271;59.120;37.970;2023-12-20T02:19:14;97366.50;;;-0.79;85.50
77867;BME280;67271;59.120;37.970;2023-12-20T02:21:40;97364.66;;;-0.79;85.59
77867;BME280;67271;59.120;37.970;2023-12-20T02:24:06;97359.94;;;-0.83;85.22
77867;BME280;67271;59.120;37.970;2023-12-20T02:26:33;97360.47;;;-0.94;85.43
77867;BME280;67271;59.120;37.970;2023-12-20T02:28:59;97352.63;;;-1.02;85.59
77867;BME280;67271;59.120;37.970;2023-12-20T02:31:26;97346.69;;;-1.04;85.72
77867;BME280;67271;59.120;37.970;2023-12-20T02:33:51;97349.94;;;-1.09;85.83
77867;BME280;67271;59.120;37.970;2023-12-20T02:36:17;97354.00;;;-1.13;86.27
77867;BME280;67271;59.120;37.970;2023-12-20T02:38:43;97352.41;;;-1.07;86.31
77867;BME280;67271;59.120;37.970;2023-12-20T02:41:09;97363.50;;;-0.97;85.75
77867;BME280;67271;59.120;37.970;2023-12-20T02:43:35;97354.63;;;-0.83;86.03
77867;BME280;67271;59.120;37.970;2023-12-20T02:46:01;97352.69;;;-0.68;85.26
77867;BME280;67271;59.120;37.970;2023-12-20T02:48:26;97352.28;;;-0.65;85.09
77867;BME280;67271;59.120;37.970;2023-12-20T02:50:52;97349.47;;;-0.63;85.06
77867;BME280;67271;59.120;37.970;2023-12-20T02:53:18;97351.50;;;-0.59;85.10
77867;BME280;67271;59.120;37.970;2023-12-20T02:55:44;97354.81;;;-0.57;84.93
77867;BME280;67271;59.120;37.970;2023-12-20T02:58:10;97355.66;;;-0.50;84.79
77867;BME280;67271;59.120;37.970;2023-12-20T03:00:35;97360.19;;;-0.44;84.71
77867;BME280;67271;59.120;37.970;2023-12-20T03:03:01;97356.97;;;-0.39;84.38
77867;BME280;67271;59.120;37.970;2023-12-20T03:05:27;97363.31;;;-0.33;84.22
77867;BME280;67271;59.120;37.970;2023-12-20T03:07:53;97359.88;;;-0.27;84.37
77867;BME280;67271;59.120;37.970;2023-12-20T03:10:19;97363.38;;;-0.20;83.99
77867;BME280;67271;59.120;37.970;2023-12-20T03:12:45;97366.28;;;-0.15;83.96
77867;BME280;67271;59.120;37.970;2023-12-20T03:15:10;97360.38;;;-0.11;84.29
77867;BME280;67271;59.120;37.970;2023-12-20T03:17:36;97365.91;;;-0.06;84.09
77867;BME280;67271;59.120;37.970;2023-12-20T03:20:02;97370.00;;;-0.03;83.25
77867;BME280;67271;59.120;37.970;2023-12-20T03:22:28;97366.34;;;-0.02;83.45
77867;BME280;67271;59.120;37.970;2023-12-20T03:24:54;97365.31;;;-0.01;83.67
77867;BME280;67271;59.120;37.970;2023-12-20T03:27:20;97367.97;;;-0.01;83.59
77867;BME280;67271;59.120;37.970;2023-12-20T03:29:45;97358.19;;;-0.01;83.60
77867;BME280;67271;59.120;37.970;2023-12-20T03:32:11;97365.31;;;-0.01;83.82
77867;BME280;67271;59.120;37.970;2023-12-20T03:34:37;97369.41;;;0.02;83.64
77867;BME280;67271;59.120;37.970;2023-12-20T03:37:03;97369.84;;;0.05;83.80
77867;BME280;67271;59.120;37.970;2023-12-20T03:39:29;97376.38;;;0.09;83.90
77867;BME280;67271;59.120;37.970;2023-12-20T03:41:54;97373.97;;;0.14;83.64
77867;BME280;67271;59.120;37.970;2023-12-20T03:44:20;97381.53;;;0.17;83.41
77867;BME280;67271;59.120;37.970;2023-12-20T03:46:46;97379.69;;;0.18;82.83
77867;BME280;67271;59.120;37.970;2023-12-20T03:49:13;97361.28;;;0.16;82.71
77867;BME280;67271;59.120;37.970;2023-12-20T03:51:38;97371.09;;;0.16;83.31
77867;BME280;67271;59.120;37.970;2023-12-20T03:54:04;97364.16;;;0.15;83.24
77867;BME280;67271;59.120;37.970;2023-12-20T03:56:30;97364.56;;;0.12;83.14
77867;BME280;67271;59.120;37.970;2023-12-20T03:58:56;97359.63;;;0.09;82.93
77867;BME280;67271;59.120;37.970;2023-12-20T04:01:22;97355.31;;;0.08;83.01
77867;BME280;67271;59.120;37.970;2023-12-20T04:03:47;97340.59;;;0.05;83.30
77867;BME280;67271;59.120;37.970;2023-12-20T04:06:17;97345.91;;;-0.02;82.86
77867;BME280;67271;59.120;37.970;2023-12-20T04:08:43;97349.28;;;-0.14;83.27
77867;BME280;67271;59.120;37.970;2023-12-20T04:11:09;97341.91;;;-0.25;83.29
77867;BME280;67271;59.120;37.970;2023-12-20T04:13:35;97349.59;;;-0.37;83.58
77867;BME280;67271;59.120;37.970;2023-12-20T04:16:01;97346.50;;;-0.47;84.13
77867;BME280;67271;59.120;37.970;2023-12-20T04:18:26;97354.81;;;-0.57;84.17
77867;BME280;67271;59.120;37.970;2023-12-20T04:20:53;97356.81;;;-0.59;84.21
77867;BME280;67271;59.120;37.970;2023-12-20T04:23:19;97365.63;;;-0.58;84.54
77867;BME280;67271;59.120;37.970;2023-12-20T04:25:45;97367.81;;;-0.68;84.65
77867;BME280;67271;59.120;37.970;2023-12-20T04:28:11;97378.03;;;-0.65;84.70
77867;BME280;67271;59.120;37.970;2023-12-20T04:30:36;97391.19;;;-0.51;84.35
77867;BME280;67271;59.120;37.970;2023-12-20T04:33:02;97385.34;;;-0.40;83.94
77867;BME280;67271;59.120;37.970;2023-12-20T04:35:28;97388.47;;;-0.29;83.74
77867;BME280;67271;59.120;37.970;2023-12-20T04:37:54;97382.41;;;-0.17;83.36
77867;BME280;67271;59.120;37.970;2023-12-20T04:40:21;97386.56;;;-0.08;83.09
77867;BME280;67271;59.120;37.970;2023-12-20T04:42:46;97383.72;;;0.00;82.92
77867;BME280;67271;59.120;37.970;2023-12-20T04:45:12;97392.53;;;0.08;83.09
77867;BME280;67271;59.120;37.970;2023-12-20T04:47:42;97389.50;;;0.11;82.83
77867;BME280;67271;59.120;37.970;2023-12-20T04:50:08;97396.84;;;0.15;82.62
77867;BME280;67271;59.120;37.970;2023-12-20T04:52:35;97388.50;;;0.18;82.88
77867;BME280;67271;59.120;37.970;2023-12-20T04:55:01;97392.59;;;0.21;82.61
77867;BME280;67271;59.120;37.970;2023-12-20T04:57:27;97386.69;;;0.25;83.06
77867;BME280;67271;59.120;37.970;2023-12-20T04:59:52;97376.69;;;0.27;82.64
77867;BME280;67271;59.120;37.970;2023-12-20T05:02:18;97381.56;;;0.30;82.67
77867;BME280;67271;59.120;37.970;2023-12-20T05:04:44;97379.53;;;0.32;82.53
77867;BME280;67271;59.120;37.970;2023-12-20T05:07:10;97381.81;;;0.35;82.41
77867;BME280;67271;59.120;37.970;2023-12-20T05:09:36;97381.81;;;0.35;82.68
77867;BME280;67271;59.120;37.970;2023-12-20T05:12:02;97383.47;;;0.36;82.60
77867;BME280;67271;59.120;37.970;2023-12-20T05:14:28;97377.13;;;0.37;81.95
77867;BME280;67271;59.120;37.970;2023-12-20T05:16:54;97375.25;;;0.38;82.36
77867;BME280;67271;59.120;37.970;2023-12-20T05:19:20;97366.50;;;0.37;82.16
77867;BME280;67271;59.120;37.970;2023-12-20T05:21:46;97371.38;;;0.41;81.82
77867;BME280;67271;59.120;37.970;2023-12-20T05:24:12;97367.91;;;0.40;81.58
77867;BME280;67271;59.120;37.970;2023-12-20T05:26:37;97369.75;;;0.39;81.70
77867;BME280;67271;59.120;37.970;2023-12-20T05:29:03;97360.53;;;0.35;81.55
77867;BME280;67271;59.120;37.970;2023-12-20T05:31:29;97367.50;;;0.36;80.97
77867;BME280;67271;59.120;37.970;2023-12-20T05:33:55;97365.66;;;0.37;80.97
77867;BME280;67271;59.120;37.970;2023-12-20T05:36:20;97366.50;;;0.37;80.81
77867;BME280;67271;59.120;37.970;2023-12-20T05:38:46;97360.34;;;0.37;80.77
77867;BME280;67271;59.120;37.970;2023-12-20T05:41:12;97367.50;;;0.36;80.70
77867;BME280;67271;59.120;37.970;2023-12-20T05:43:39;97363.81;;;0.37;80.88
77867;BME280;67271;59.120;37.970;2023-12-20T05:46:05;97360.34;;;0.37;80.67
77867;BME280;67271;59.120;37.970;2023-12-20T05:48:31;97356.03;;;0.36;80.65
77867;BME280;67271;59.120;37.970;2023-12-20T05:50:57;97377.91;;;0.31;80.44
77867;BME280;67271;59.120;37.970;2023-12-20T05:53:23;97369.47;;;0.15;80.80
77867;BME280;67271;59.120;37.970;2023-12-20T05:55:49;97373.91;;;0.01;81.28
77867;BME280;67271;59.120;37.970;2023-12-20T05:58:15;97375.16;;;0.05;81.36
77867;BME280;67271;59.120;37.970;2023-12-20T06:00:40;97375.19;;;0.12;81.44
77867;BME280;67271;59.120;37.970;2023-12-20T06:03:06;97380.97;;;0.22;80.90
77867;BME280;67271;59.120;37.970;2023-12-20T06:05:32;97373.22;;;0.33;80.41
77867;BME280;67271;59.120;37.970;2023-12-20T06:07:58;97382.66;;;0.43;80.20
77867;BME280;67271;59.120;37.970;2023-12-20T06:10:27;97383.28;;;0.45;79.82
77867;BME280;67271;59.120;37.970;2023-12-20T06:12:52;97393.69;;;0.46;79.93
77867;BME280;67271;59.120;37.970;2023-12-20T06:15:18;97390.47;;;0.51;79.83
77867;BME280;67271;59.120;37.970;2023-12-20T06:17:44;97399.03;;;0.53;79.65
77867;BME280;67271;59.120;37.970;2023-12-20T06:20:12;97397.63;;;0.57;80.02
77867;BME280;67271;59.120;37.970;2023-12-20T06:22:38;97398.03;;;0.60;79.60
77867;BME280;67271;59.120;37.970;2023-12-20T06:25:04;97385.56;;;0.61;80.10
77867;BME280;67271;59.120;37.970;2023-12-20T06:27:30;97382.69;;;0.62;79.69
77867;BME280;67271;59.120;37.970;2023-12-20T06:29:58;97392.94;;;0.65;79.98
77867;BME280;67271;59.120;37.970;2023-12-20T06:32:24;97395.41;;;0.67;79.81
77867;BME280;67271;59.120;37.970;2023-12-20T06:34:50;97403.78;;;0.70;79.73
77867;BME280;67271;59.120;37.970;2023-12-20T06:37:16;97395.41;;;0.73;79.76
77867;BME280;67271;59.120;37.970;2023-12-20T06:39:42;97403.22;;;0.75;79.63
77867;BME280;67271;59.120;37.970;2023-12-20T06:42:07;97399.50;;;0.76;79.59
77867;BME280;67271;59.120;37.970;2023-12-20T06:44:33;97390.50;;;0.77;79.02
77867;BME280;67271;59.120;37.970;2023-12-20T06:46:59;97401.78;;;0.79;79.09
77867;BME280;67271;59.120;37.970;2023-12-20T06:49:25;97393.59;;;0.81;78.42
77867;BME280;67271;59.120;37.970;2023-12-20T06:51:51;97398.72;;;0.82;78.75
77867;BME280;67271;59.120;37.970;2023-12-20T06:54:17;97387.03;;;0.83;78.36
77867;BME280;67271;59.120;37.970;2023-12-20T06:56:43;97389.09;;;0.74;78.24
77867;BME280;67271;59.120;37.970;2023-12-20T06:59:09;97379.84;;;0.64;78.50
77867;BME280;67271;59.120;37.970;2023-12-20T07:01:34;97380.41;;;0.53;78.84
77867;BME280;67271;59.120;37.970;2023-12-20T07:04:00;97372.41;;;0.39;79.22
77867;BME280;67271;59.120;37.970;2023-12-20T07:06:26;97379.53;;;0.32;79.11
77867;BME280;67271;59.120;37.970;2023-12-20T07:08:52;97377.91;;;0.31;79.20
77867;BME280;67271;59.120;37.970;2023-12-20T07:11:18;97377.72;;;0.33;79.46
77867;BME280;67271;59.120;37.970;2023-12-20T07:13:44;97374.84;;;0.34;79.43
77867;BME280;67271;59.120;37.970;2023-12-20T07:16:09;97369.56;;;0.41;78.90
77867;BME280;67271;59.120;37.970;2023-12-20T07:18:35;97372.84;;;0.50;78.68
77867;BME280;67271;59.120;37.970;2023-12-20T07:21:01;97372.03;;;0.56;79.05
77867;BME280;67271;59.120;37.970;2023-12-20T07:23:27;97358.53;;;0.51;78.87
77867;BME280;67271;59.120;37.970;2023-12-20T07:25:53;97356.44;;;0.39;79.06
77867;BME280;67271;59.120;37.970;2023-12-20T07:28:18;97369.53;;;0.34;79.07
77867;BME280;67271;59.120;37.970;2023-12-20T07:30:44;97368.31;;;0.37;79.07
77867;BME280;67271;59.120;37.970;2023-12-20T07:33:10;97374.06;;;0.54;78.91
77867;BME280;67271;59.120;37.970;2023-12-20T07:35:37;97379.84;;;0.64;78.41
77867;BME280;67271;59.120;37.970;2023-12-20T07:38:03;97369.19;;;0.70;78.66
77867;BME280;67271;59.120;37.970;2023-12-20T07:40:29;97369.63;;;0.81;78.06
77867;BME280;67271;59.120;37.970;2023-12-20T07:42:55;97362.88;;;0.78;78.12
77867;BME280;67271;59.120;37.970;2023-12-20T07:45:21;97369.22;;;0.77;77.87
77867;BME280;67271;59.120;37.970;2023-12-20T07:47:47;97359.00;;;0.87;77.92
77867;BME280;67271;59.120;37.970;2023-12-20T07:50:12;97358.16;;;0.93;78.23
77867;BME280;67271;59.120;37.970;2023-12-20T07:52:38;97346.91;;;0.98;78.08
77867;BME280;67271;59.120;37.970;2023-12-20T07:55:04;97354.88;;;0.98;77.65
77867;BME280;67271;59.120;37.970;2023-12-20T07:57:30;97361.44;;;1.02;77.88
77867;BME280;67271;59.120;37.970;2023-12-20T07:59:56;97342.81;;;1.08;77.00
77867;BME280;67271;59.120;37.970;2023-12-20T08:02:22;97341.59;;;1.04;77.43
77867;BME280;67271;59.120;37.970;2023-12-20T08:04:48;97335.03;;;1.00;77.56
77867;BME280;67271;59.120;37.970;2023-12-20T08:07:13;97327.44;;;0.91;77.03
77867;BME280;67271;59.120;37.970;2023-12-20T08:09:40;97331.34;;;0.75;77.90
77867;BME280;67271;59.120;37.970;2023-12-20T08:12:06;97338.91;;;0.65;78.11
77867;BME280;67271;59.120;37.970;2023-12-20T08:14:32;97337.25;;;0.57;77.72
77867;BME280;67271;59.120;37.970;2023-12-20T08:16:57;97348.28;;;0.48;77.96
77867;BME280;67271;59.120;37.970;2023-12-20T08:19:23;97339.91;;;0.44;77.69
77867;BME280;67271;59.120;37.970;2023-12-20T08:21:49;97333.75;;;0.44;78.20
77867;BME280;67271;59.120;37.970;2023-12-20T08:24:15;97334.78;;;0.43;78.02
77867;BME280;67271;59.120;37.970;2023-12-20T08:26:40;97327.81;;;0.42;77.88
77867;BME280;67271;59.120;37.970;2023-12-20T08:29:06;97333.97;;;0.42;77.72
77867;BME280;67271;59.120;37.970;2023-12-20T08:31:32;97337.22;;;0.37;78.10
77867;BME280;67271;59.120;37.970;2023-12-20T08:33:58;97324.72;;;0.38;77.84
77867;BME280;67271;59.120;37.970;2023-12-20T08:36:24;97338.03;;;0.38;77.94
77867;BME280;67271;59.120;37.970;2023-12-20T08:38:50;97329.25;;;0.37;78.17
77867;BME280;67271;59.120;37.970;2023-12-20T08:41:17;97315.53;;;0.41;77.46
77867;BME280;67271;59.120;37.970;2023-12-20T08:43:43;97330.47;;;0.42;77.66
77867;BME280;67271;59.120;37.970;2023-12-20T08:46:09;97327.81;;;0.42;77.48
77867;BME280;67271;59.120;37.970;2023-12-20T08:48:38;97323.72;;;0.46;77.10
77867;BME280;67271;59.120;37.970;2023-12-20T08:51:04;97335.78;;;0.42;76.97
77867;BME280;67271;59.120;37.970;2023-12-20T08:53:32;97329.84;;;0.39;77.71
77867;BME280;67271;59.120;37.970;2023-12-20T08:55:59;97331.31;;;0.49;76.60
77867;BME280;67271;59.120;37.970;2023-12-20T08:58:27;97335.19;;;0.53;76.87
77867;BME280;67271;59.120;37.970;2023-12-20T09:00:53;97340.13;;;0.56;76.73
77867;BME280;67271;59.120;37.970;2023-12-20T09:03:19;97342.97;;;0.61;76.31
77867;BME280;67271;59.120;37.970;2023-12-20T09:05:45;97347.28;;;0.62;76.77
77867;BME280;67271;59.120;37.970;2023-12-20T09:08:10;97344.03;;;0.60;77.01
77867;BME280;67271;59.120;37.970;2023-12-20T09:10:38;97342.38;;;0.59;76.55
77867;BME280;67271;59.120;37.970;2023-12-20T09:13:03;97344.03;;;0.60;76.54
77867;BME280;67271;59.120;37.970;2023-12-20T09:15:30;97348.94;;;0.63;76.20
77867;BME280;67271;59.120;37.970;2023-12-20T09:17:55;97341.38;;;0.60;76.17
77867;BME280;67271;59.120;37.970;2023-12-20T09:20:21;97337.44;;;0.56;76.23
77867;BME280;67271;59.120;37.970;2023-12-20T09:22:49;97345.44;;;0.56;76.39
77867;BME280;67271;59.120;37.970;2023-12-20T09:25:15;97356.69;;;0.58;76.35
77867;BME280;67271;59.120;37.970;2023-12-20T09:27:42;97352.41;;;0.63;75.99
77867;BME280;67271;59.120;37.970;2023-12-20T09:30:08;97352.22;;;0.65;76.30
77867;BME280;67271;59.120;37.970;2023-12-20T09:32:34;97351.78;;;0.68;75.73
77867;BME280;67271;59.120;37.970;2023-12-20T09:35:00;97357.34;;;0.66;76.05
77867;BME280;67271;59.120;37.970;2023-12-20T09:37:27;97358.53;;;0.57;75.82
77867;BME280;67271;59.120;37.970;2023-12-20T09:39:53;97362.22;;;0.56;75.71
77867;BME280;67271;59.120;37.970;2023-12-20T09:42:25;97366.72;;;0.62;75.16
77867;BME280;67271;59.120;37.970;2023-12-20T09:44:55;97355.69;;;0.59;75.48
77867;BME280;67271;59.120;37.970;2023-12-20T09:47:22;97358.34;;;0.59;75.19
77867;BME280;67271;59.120;37.970;2023-12-20T09:49:50;97357.31;;;0.60;75.37
77867;BME280;67271;59.120;37.970;2023-12-20T09:52:18;97357.97;;;0.75;74.31
77867;BME280;67271;59.120;37.970;2023-12-20T09:54:45;97366.97;;;0.87;74.37
77867;BME280;67271;59.120;37.970;2023-12-20T09:57:13;97356.94;;;0.89;74.30
77867;BME280;67271;59.120;37.970;2023-12-20T09:59:40;97366.16;;;0.87;74.47
77867;BME280;67271;59.120;37.970;2023-12-20T10:02:11;97364.94;;;0.83;73.98
77867;BME280;67271;59.120;37.970;2023-12-20T10:04:41;97365.53;;;0.85;73.97
77867;BME280;67271;59.120;37.970;2023-12-20T10:07:11;97375.34;;;0.91;74.08
77867;BME280;67271;59.120;37.970;2023-12-20T10:09:38;97380.91;;;1.09;73.52
77867;BME280;67271;59.120;37.970;2023-12-20T10:12:05;97371.91;;;1.23;73.09
77867;BME280;67271;59.120;37.970;2023-12-20T10:14:33;97377.00;;;1.31;72.79
77867;BME280;67271;59.120;37.970;2023-12-20T10:17:03;97386.84;;;1.37;72.87
77867;BME280;67271;59.120;37.970;2023-12-20T10:19:29;97390.50;;;1.43;72.80
77867;BME280;67271;59.120;37.970;2023-12-20T10:21:55;97391.78;;;1.40;72.68
77867;BME280;67271;59.120;37.970;2023-12-20T10:24:21;97383.34;;;1.43;72.69
77867;BME280;67271;59.120;37.970;2023-12-20T10:26:47;97397.91;;;1.41;71.91
77867;BME280;67271;59.120;37.970;2023-12-20T10:29:13;97390.75;;;1.41;72.01
77867;BME280;67271;59.120;37.970;2023-12-20T10:31:39;97406.13;;;1.39;72.36
77867;BME280;67271;59.120;37.970;2023-12-20T10:34:04;97399.13;;;1.38;72.40
77867;BME280;67271;59.120;37.970;2023-12-20T10:36:32;97400.34;;;1.36;72.24
77867;BME280;67271;59.120;37.970;2023-12-20T10:38:59;97413.09;;;1.34;72.12
77867;BME280;67271;59.120;37.970;2023-12-20T10:41:29;97403.44;;;1.33;71.93
77867;BME280;67271;59.120;37.970;2023-12-20T10:43:59;97404.06;;;1.35;71.50
77867;BME280;67271;59.120;37.970;2023-12-20T10:46:26;97398.75;;;1.35;71.50
77867;BME280;67271;59.120;37.970;2023-12-20T10:48:56;97406.13;;;1.33;72.25
77867;BME280;67271;59.120;37.970;2023-12-20T10:51:22;97393.00;;;1.31;72.50
77867;BME280;67271;59.120;37.970;2023-12-20T10:53:50;97404.47;;;1.32;71.12
77867;BME280;67271;59.120;37.970;2023-12-20T10:56:17;97387.88;;;1.30;70.31
77867;BME280;67271;59.120;37.970;2023-12-20T10:58:45;97395.03;;;1.29;70.89
77867;BME280;67271;59.120;37.970;2023-12-20T11:01:13;97409.38;;;1.28;71.28
77867;BME280;67271;59.120;37.970;2023-12-20T11:03:44;97403.25;;;1.28;71.04
77867;BME280;67271;59.120;37.970;2023-12-20T11:06:18;97405.91;;;1.28;71.29
77867;BME280;67271;59.120;37.970;2023-12-20T11:16:21;97398.34;;;1.18;70.83
77867;BME280;67271;59.120;37.970;2023-12-20T11:18:47;97399.16;;;1.19;70.59
77867;BME280;67271;59.120;37.970;2023-12-20T11:21:13;97389.53;;;1.17;70.75
77867;BME280;67271;59.120;37.970;2023-12-20T11:23:42;97402.22;;;1.15;70.56
77867;BME280;67271;59.120;37.970;2023-12-20T11:26:08;97396.88;;;1.15;70.47
77867;BME280;67271;59.120;37.970;2023-12-20T11:28:34;97392.59;;;1.14;70.63
77867;BME280;67271;59.120;37.970;2023-12-20T11:31:02;97387.25;;;1.14;70.70
77867;BME280;67271;59.120;37.970;2023-12-20T11:33:36;97399.56;;;1.15;70.54
77867;BME280;67271;59.120;37.970;2023-12-20T11:36:02;97401.19;;;1.16;70.52
77867;BME280;67271;59.120;37.970;2023-12-20T11:38:37;97418.63;;;1.19;69.88
77867;BME280;67271;59.120;37.970;2023-12-20T11:41:05;97425.78;;;1.19;70.44
77867;BME280;67271;59.120;37.970;2023-12-20T11:43:34;97397.50;;;1.17;70.21
77867;BME280;67271;59.120;37.970;2023-12-20T11:46:05;97406.53;;;1.16;70.04
77867;BME280;67271;59.120;37.970;2023-12-20T11:48:38;97399.56;;;1.15;70.43
77867;BME280;67271;59.120;37.970;2023-12-20T11:51:11;97402.41;;;1.14;70.33
77867;BME280;67271;59.120;37.970;2023-12-20T11:53:38;97412.47;;;1.12;69.63
77867;BME280;67271;59.120;37.970;2023-12-20T11:56:05;97419.63;;;1.11;70.02
77867;BME280;67271;59.120;37.970;2023-12-20T11:58:32;97419.63;;;1.11;70.18
77867;BME280;67271;59.120;37.970;2023-12-20T12:00:58;97417.56;;;1.13;70.26
77867;BME280;67271;59.120;37.970;2023-12-20T12:03:24;97423.72;;;1.14;69.88
77867;BME280;67271;59.120;37.970;2023-12-20T12:05:50;97424.34;;;1.16;69.89
77867;BME280;67271;59.120;37.970;2023-12-20T12:08:19;97438.47;;;1.16;69.37
77867;BME280;67271;59.120;37.970;2023-12-20T12:10:45;97432.94;;;1.11;69.70
77867;BME280;67271;59.120;37.970;2023-12-20T12:13:12;97435.63;;;1.11;69.33
77867;BME280;67271;59.120;37.970;2023-12-20T12:15:39;97432.31;;;1.09;69.91
77867;BME280;67271;59.120;37.970;2023-12-20T12:18:07;97451.34;;;1.06;69.73
77867;BME280;67271;59.120;37.970;2023-12-20T12:20:34;97449.53;;;1.07;70.21
77867;BME280;67271;59.120;37.970;2023-12-20T12:23:03;97447.69;;;1.07;70.26
77867;BME280;67271;59.120;37.970;2023-12-20T12:25:30;97437.47;;;1.11;69.69
77867;BME280;67271;59.120;37.970;2023-12-20T12:28:00;97453.25;;;1.12;69.09
77867;BME280;67271;59.120;37.970;2023-12-20T12:30:26;97442.97;;;1.09;69.44
77867;BME280;67271;59.120;37.970;2023-12-20T12:32:52;97457.31;;;1.08;69.75
77867;BME280;67271;59.120;37.970;2023-12-20T12:35:19;97451.97;;;1.08;69.69
77867;BME280;67271;59.120;37.970;2023-12-20T12:37:46;97459.97;;;1.08;70.02
77867;BME280;67271;59.120;37.970;2023-12-20T12:40:13;97455.66;;;1.07;70.36
77867;BME280;67271;59.120;37.970;2023-12-20T12:42:40;97465.50;;;1.07;70.27
77867;BME280;67271;59.120;37.970;2023-12-20T12:45:07;97474.31;;;1.07;69.87
77867;BME280;67271;59.120;37.970;2023-12-20T12:47:34;97478.22;;;1.11;69.88
77867;BME280;67271;59.120;37.970;2023-12-20T12:50:00;97472.66;;;1.13;69.51
77867;BME280;67271;59.120;37.970;2023-12-20T12:52:26;97480.66;;;1.13;69.52
77867;BME280;67271;59.120;37.970;2023-12-20T12:54:53;97492.13;;;1.13;69.48
77867;BME280;67271;59.120;37.970;2023-12-20T12:57:19;97493.19;;;1.12;70.32
77867;BME280;67271;59.120;37.970;2023-12-20T12:59:46;97487.03;;;1.12;69.82
77867;BME280;67271;59.120;37.970;2023-12-20T13:02:15;97501.75;;;1.14;69.71
77867;BME280;67271;59.120;37.970;2023-12-20T13:04:41;97508.13;;;1.13;69.85